Warning: Javascript must be enabled to use all the features on this page!


Page Loading - Please Wait...

Click to hideNews Bulletins

Peak Streamflow for the Nation

USGS 02472850 OKATOMA CREEK AT SANFORD, MS

Covington County, Mississippi
Hydrologic Unit Code 03170004
Latitude  31°29'21", Longitude  89°26'00" NAD83
Drainage area 257.00  square miles
Contributing drainage area 257.00  square miles
Gage datum 183.33 feet above NGVD29
Output formats
Table
Graph
Tab-separated file
peakfq (watstore) format
Reselect output format
Water
Year
Date Gage
Height
(feet)
Stream-
flow
(cfs)
1995 1995-04-25 14.00 3,800
1996 1996-03-07 13.06 3,300
1997 1997-04-29 19.69 7,150
1998 1998-01-07 18.46 6,530
1999 1999-03-09 16.72 5,650
2000 1999-10-10 13.06 3,360
2001 2001-03-04 23.65 11,500
2002 2001-12-14 13.51 3,660
2003 2003-02-24 22.41 9,780
2004 2004-02-08 20.13 7,890
2005 2005-03-31 20.47 8,140
2006 2006-03-23 12.73 3,150
2007 2006-12-31 13.75 3,800
2008 2008-09-02 13.50 3,650
2009 2009-04-13 19.25 7,290
2010 2009-12-18 14.20 4,070
2011 2011-03-09 19.11 7,200
2012 2012-03-22 16.94 5,780
2013 2013-02-12 18.52 6,810
2014 2014-02-21 15.19 4,670
2015 2015-01-05 14.76 4,410
2016 2016-03-11 24.76 13,500
2017 2017-06-06 15.46 4,840
2018 2018-04-15 13.76 3,800
2019 2018-12-28 20.13 7,890